SWA2054 KORL-KCLE
Flight info
| Callsign | SWA2054 |
|---|---|
| Flight time | 2h 10m |
| Altitude | 36000 |
| Route | NYTES2 NYTES DCT WORMS DCT JEEMY DCT ACCHE DCT PAINN DCT SHRKS Q77 TEUFL/N0454F350 Q77 WIGVO DCT IRQ DCT BURGG Q147 HVQ DCT JANYS ROLLN2 |
| Aircraft | B738/M-SDE2E3FGHIRWXY/LB1 |
Departure
| Time | 2026-05-05 00:39 |
|---|---|
| Airport | Orlando Executive Airport (KORL) |
Arrival
| Time | 2026-05-05 02:50 |
|---|---|
| Airport | Cleveland Hopkins International Airport (KCLE) |
| Time | Latitude | Longitude | Altitude | Speed | Heading |
|---|---|---|---|---|---|
| 2026-05-05 00:16 | 28.54812 | -81.33531 | 118 ft | 0 kts | 47° |
| 2026-05-05 00:30 | 28.54813 | -81.33529 | 118 ft | 1 kts | 56° |
| 2026-05-05 00:30 | 28.54810 | -81.33509 | 115 ft | 6 kts | 125° |
| 2026-05-05 00:31 | 28.54778 | -81.33523 | 118 ft | 6 kts | 234° |
| 2026-05-05 00:31 | 28.54750 | -81.33561 | 114 ft | 8 kts | 221° |
| 2026-05-05 00:31 | 28.54701 | -81.33600 | 118 ft | 9 kts | 218° |
| 2026-05-05 00:31 | 28.54652 | -81.33648 | 114 ft | 9 kts | 220° |
| 2026-05-05 00:32 | 28.54607 | -81.33628 | 117 ft | 7 kts | 136° |
| 2026-05-05 00:32 | 28.54567 | -81.33604 | 112 ft | 7 kts | 207° |
| 2026-05-05 00:32 | 28.54538 | -81.33656 | 112 ft | 9 kts | 245° |
| 2026-05-05 00:32 | 28.54502 | -81.33744 | 113 ft | 15 kts | 246° |
| 2026-05-05 00:33 | 28.54451 | -81.33842 | 112 ft | 14 kts | 224° |
| 2026-05-05 00:33 | 28.54400 | -81.33889 | 113 ft | 0 kts | 218° |
| 2026-05-05 00:33 | 28.54397 | -81.33891 | 113 ft | 1 kts | 218° |
| 2026-05-05 00:33 | 28.54394 | -81.33894 | 113 ft | 0 kts | 218° |
| 2026-05-05 00:35 | 28.54393 | -81.33895 | 113 ft | 0 kts | 218° |
| 2026-05-05 00:38 | 28.54367 | -81.33917 | 112 ft | 12 kts | 217° |
| 2026-05-05 00:38 | 28.54304 | -81.33889 | 109 ft | 13 kts | 87° |
| 2026-05-05 00:39 | 28.54358 | -81.33731 | 112 ft | 50 kts | 66° |
| 2026-05-05 00:39 | 28.54598 | -81.33101 | 120 ft | 123 kts | 67° |
| 2026-05-05 00:39 | 28.55001 | -81.31989 | 284 ft | 173 kts | 69° |
| 2026-05-05 00:39 | 28.55522 | -81.30679 | 1019 ft | 191 kts | 65° |
| 2026-05-05 00:40 | 28.56174 | -81.29396 | 1350 ft | 180 kts | 57° |
| 2026-05-05 00:40 | 28.56910 | -81.28296 | 1474 ft | 171 kts | 53° |
| 2026-05-05 00:40 | 28.57695 | -81.27299 | 1489 ft | 171 kts | 50° |
| 2026-05-05 00:40 | 28.58497 | -81.26299 | 1492 ft | 170 kts | 51° |
| 2026-05-05 00:41 | 28.59275 | -81.25315 | 1527 ft | 164 kts | 56° |
| 2026-05-05 00:41 | 28.59647 | -81.24085 | 1665 ft | 175 kts | 87° |
| 2026-05-05 00:41 | 28.59775 | -81.22577 | 1935 ft | 206 kts | 84° |
| 2026-05-05 00:41 | 28.59970 | -81.20854 | 2138 ft | 235 kts | 83° |
| 2026-05-05 00:42 | 28.60189 | -81.18942 | 2801 ft | 247 kts | 83° |
| 2026-05-05 00:42 | 28.60407 | -81.16990 | 3673 ft | 252 kts | 83° |
| 2026-05-05 00:42 | 28.60633 | -81.14959 | 4357 ft | 266 kts | 83° |
| 2026-05-05 00:42 | 28.60865 | -81.12825 | 4902 ft | 275 kts | 83° |
| 2026-05-05 00:43 | 28.61098 | -81.10659 | 4980 ft | 275 kts | 83° |
| 2026-05-05 00:43 | 28.61331 | -81.08497 | 5002 ft | 276 kts | 83° |
| 2026-05-05 00:43 | 28.61563 | -81.06344 | 5031 ft | 279 kts | 83° |
| 2026-05-05 00:43 | 28.61805 | -81.04115 | 5478 ft | 289 kts | 82° |
| 2026-05-05 00:44 | 28.62505 | -81.01951 | 6138 ft | 302 kts | 53° |
| 2026-05-05 00:44 | 28.64095 | -81.00431 | 6335 ft | 300 kts | 21° |
| 2026-05-05 00:44 | 28.66068 | -80.99997 | 6721 ft | 282 kts | 355° |
| 2026-05-05 00:44 | 28.67944 | -81.00504 | 7081 ft | 279 kts | 332° |
| 2026-05-05 00:45 | 28.69474 | -81.01715 | 8264 ft | 258 kts | 314° |
| 2026-05-05 00:45 | 28.70701 | -81.03180 | 9396 ft | 255 kts | 308° |
| 2026-05-05 00:45 | 28.71921 | -81.04717 | 10008 ft | 274 kts | 313° |
| 2026-05-05 00:45 | 28.73290 | -81.06256 | 10550 ft | 286 kts | 314° |
| 2026-05-05 00:46 | 28.74737 | -81.07844 | 11233 ft | 291 kts | 314° |
| 2026-05-05 00:46 | 28.76198 | -81.09454 | 11997 ft | 294 kts | 314° |
| 2026-05-05 00:46 | 28.77668 | -81.11090 | 12747 ft | 297 kts | 314° |
| 2026-05-05 00:46 | 28.79153 | -81.12757 | 13501 ft | 301 kts | 314° |
| 2026-05-05 00:47 | 28.80647 | -81.14442 | 14201 ft | 305 kts | 314° |
| 2026-05-05 00:47 | 28.82191 | -81.16192 | 14485 ft | 324 kts | 313° |
| 2026-05-05 00:47 | 28.83839 | -81.18068 | 14643 ft | 345 kts | 313° |
| 2026-05-05 00:47 | 28.85585 | -81.20056 | 14913 ft | 359 kts | 313° |
| 2026-05-05 00:48 | 28.87326 | -81.22036 | 16010 ft | 346 kts | 313° |
| 2026-05-05 00:48 | 28.89003 | -81.23942 | 17208 ft | 333 kts | 312° |
| 2026-05-05 00:48 | 28.90623 | -81.25787 | 18228 ft | 327 kts | 311° |
| 2026-05-05 00:48 | 28.92234 | -81.27628 | 18866 ft | 329 kts | 311° |
| 2026-05-05 00:49 | 28.93867 | -81.29497 | 19396 ft | 334 kts | 311° |
| 2026-05-05 00:49 | 28.95516 | -81.31383 | 19989 ft | 336 kts | 311° |
| 2026-05-05 00:49 | 28.97172 | -81.33276 | 20676 ft | 336 kts | 311° |
| 2026-05-05 00:49 | 28.98804 | -81.35140 | 21363 ft | 335 kts | 311° |
| 2026-05-05 00:50 | 29.00468 | -81.37004 | 21989 ft | 338 kts | 315° |
| 2026-05-05 00:50 | 29.02363 | -81.38625 | 22567 ft | 344 kts | 324° |
| 2026-05-05 00:50 | 29.04499 | -81.39915 | 23163 ft | 349 kts | 328° |
| 2026-05-05 00:50 | 29.06682 | -81.41143 | 23727 ft | 351 kts | 328° |
| 2026-05-05 00:51 | 29.08924 | -81.42283 | 24187 ft | 357 kts | 335° |
| 2026-05-05 00:51 | 29.11341 | -81.43042 | 24648 ft | 365 kts | 343° |
| 2026-05-05 00:51 | 29.13897 | -81.43385 | 25104 ft | 371 kts | 348° |
| 2026-05-05 00:51 | 29.16479 | -81.43621 | 25551 ft | 374 kts | 348° |
| 2026-05-05 00:52 | 29.19088 | -81.43845 | 25972 ft | 377 kts | 348° |
| 2026-05-05 00:52 | 29.21681 | -81.44070 | 26394 ft | 379 kts | 348° |
| 2026-05-05 00:52 | 29.24319 | -81.44305 | 26826 ft | 381 kts | 348° |
| 2026-05-05 00:52 | 29.27005 | -81.44551 | 27271 ft | 384 kts | 347° |
| 2026-05-05 00:53 | 29.29640 | -81.44799 | 27650 ft | 387 kts | 347° |
| 2026-05-05 00:53 | 29.32336 | -81.45054 | 28038 ft | 389 kts | 347° |
| 2026-05-05 00:53 | 29.35047 | -81.45312 | 28454 ft | 391 kts | 347° |
| 2026-05-05 00:53 | 29.37768 | -81.45572 | 28854 ft | 394 kts | 347° |
| 2026-05-05 00:54 | 29.40515 | -81.45836 | 29242 ft | 396 kts | 347° |
| 2026-05-05 00:54 | 29.43269 | -81.46100 | 29631 ft | 398 kts | 347° |
| 2026-05-05 00:54 | 29.46039 | -81.46365 | 29996 ft | 401 kts | 346° |
| 2026-05-05 00:54 | 29.48824 | -81.46632 | 30327 ft | 403 kts | 346° |
| 2026-05-05 00:55 | 29.51621 | -81.46899 | 30662 ft | 404 kts | 347° |
| 2026-05-05 00:55 | 29.54421 | -81.47166 | 31015 ft | 404 kts | 347° |
| 2026-05-05 00:55 | 29.57230 | -81.47435 | 31402 ft | 405 kts | 346° |
| 2026-05-05 00:55 | 29.60040 | -81.47700 | 31716 ft | 406 kts | 347° |
| 2026-05-05 00:56 | 29.62862 | -81.47955 | 32020 ft | 407 kts | 347° |
| 2026-05-05 00:56 | 29.65692 | -81.48207 | 32328 ft | 409 kts | 347° |
| 2026-05-05 00:56 | 29.68529 | -81.48459 | 32624 ft | 409 kts | 347° |
| 2026-05-05 00:56 | 29.71377 | -81.48714 | 32931 ft | 410 kts | 347° |
| 2026-05-05 00:57 | 29.74232 | -81.48970 | 33216 ft | 412 kts | 347° |
| 2026-05-05 00:57 | 29.77091 | -81.49227 | 33492 ft | 413 kts | 347° |
| 2026-05-05 00:57 | 29.79925 | -81.49482 | 33762 ft | 414 kts | 347° |
| 2026-05-05 00:57 | 29.82802 | -81.49741 | 34033 ft | 415 kts | 347° |
| 2026-05-05 00:58 | 29.85682 | -81.50001 | 34275 ft | 416 kts | 347° |
| 2026-05-05 00:58 | 29.88572 | -81.50312 | 34394 ft | 416 kts | 343° |
| 2026-05-05 00:58 | 29.91371 | -81.51042 | 34535 ft | 409 kts | 335° |
| 2026-05-05 00:58 | 29.93177 | -81.51694 | 34677 ft | 409 kts | 334° |
| 2026-05-05 00:59 | 29.95898 | -81.52690 | 34864 ft | 410 kts | 334° |
| 2026-05-05 00:59 | 29.98624 | -81.53690 | 35027 ft | 412 kts | 334° |
| 2026-05-05 00:59 | 30.01367 | -81.54689 | 35075 ft | 416 kts | 335° |
| 2026-05-05 01:00 | 30.06907 | -81.56685 | 35074 ft | 415 kts | 335° |
| 2026-05-05 01:00 | 30.12386 | -81.58642 | 35082 ft | 411 kts | 335° |
| 2026-05-05 01:01 | 30.17834 | -81.60592 | 35100 ft | 410 kts | 334° |
| 2026-05-05 01:01 | 30.23276 | -81.62543 | 35106 ft | 409 kts | 334° |
| 2026-05-05 01:02 | 30.28708 | -81.64493 | 35102 ft | 409 kts | 334° |
| 2026-05-05 01:02 | 30.34117 | -81.66434 | 35102 ft | 409 kts | 335° |
| 2026-05-05 01:03 | 30.39550 | -81.68389 | 35088 ft | 409 kts | 335° |
| 2026-05-05 01:03 | 30.44978 | -81.70345 | 35094 ft | 409 kts | 335° |
| 2026-05-05 01:04 | 30.50405 | -81.72302 | 35090 ft | 409 kts | 335° |
| 2026-05-05 01:04 | 30.58545 | -81.75241 | 35092 ft | 408 kts | 335° |
| 2026-05-05 01:05 | 30.64025 | -81.77051 | 35080 ft | 414 kts | 340° |
| 2026-05-05 01:05 | 30.69736 | -81.78202 | 35092 ft | 417 kts | 342° |
| 2026-05-05 01:06 | 30.75469 | -81.79280 | 35083 ft | 418 kts | 342° |
| 2026-05-05 01:06 | 30.81173 | -81.80388 | 35064 ft | 418 kts | 342° |
| 2026-05-05 01:07 | 30.86944 | -81.81537 | 35060 ft | 418 kts | 341° |
| 2026-05-05 01:07 | 30.92644 | -81.82682 | 35059 ft | 419 kts | 341° |
| 2026-05-05 01:08 | 30.98392 | -81.83840 | 35061 ft | 419 kts | 341° |
| 2026-05-05 01:08 | 31.04147 | -81.85002 | 35063 ft | 420 kts | 341° |
| 2026-05-05 01:09 | 31.09919 | -81.86166 | 35052 ft | 421 kts | 341° |
| 2026-05-05 01:09 | 31.15695 | -81.87333 | 35057 ft | 421 kts | 341° |
| 2026-05-05 01:10 | 31.21441 | -81.88495 | 35073 ft | 421 kts | 341° |
| 2026-05-05 01:10 | 31.27213 | -81.89664 | 35128 ft | 421 kts | 341° |
| 2026-05-05 01:11 | 31.32999 | -81.90838 | 35100 ft | 422 kts | 342° |
| 2026-05-05 01:11 | 31.38789 | -81.92013 | 35101 ft | 422 kts | 342° |
| 2026-05-05 01:12 | 31.44571 | -81.93189 | 35116 ft | 422 kts | 342° |
| 2026-05-05 01:12 | 31.50350 | -81.94365 | 35117 ft | 421 kts | 341° |
| 2026-05-05 01:13 | 31.56130 | -81.95543 | 35143 ft | 421 kts | 342° |
| 2026-05-05 01:13 | 31.61913 | -81.96724 | 35126 ft | 422 kts | 342° |
| 2026-05-05 01:14 | 31.67661 | -81.97898 | 35054 ft | 422 kts | 342° |
| 2026-05-05 01:14 | 31.73439 | -81.99080 | 35053 ft | 422 kts | 342° |
| 2026-05-05 01:15 | 31.79146 | -82.00249 | 35063 ft | 421 kts | 342° |
| 2026-05-05 01:15 | 31.84923 | -82.01435 | 35081 ft | 422 kts | 342° |
| 2026-05-05 01:16 | 31.90829 | -82.02109 | 35081 ft | 431 kts | 350° |
| 2026-05-05 01:16 | 31.96844 | -82.02249 | 35083 ft | 433 kts | 351° |
| 2026-05-05 01:17 | 32.02867 | -82.02379 | 35081 ft | 433 kts | 351° |
| 2026-05-05 01:17 | 32.08900 | -82.02560 | 35081 ft | 434 kts | 351° |
| 2026-05-05 01:18 | 32.14941 | -82.02763 | 35087 ft | 435 kts | 351° |
| 2026-05-05 01:18 | 32.20969 | -82.02968 | 35069 ft | 437 kts | 351° |
| 2026-05-05 01:19 | 32.27047 | -82.03175 | 35086 ft | 438 kts | 351° |
| 2026-05-05 01:19 | 32.33145 | -82.03380 | 35082 ft | 439 kts | 351° |
| 2026-05-05 01:20 | 32.39259 | -82.03580 | 35084 ft | 440 kts | 352° |
| 2026-05-05 01:20 | 32.45393 | -82.03790 | 35078 ft | 441 kts | 352° |
| 2026-05-05 01:21 | 32.51494 | -82.04261 | 35073 ft | 439 kts | 349° |
| 2026-05-05 01:21 | 32.57588 | -82.04910 | 35060 ft | 440 kts | 348° |
| 2026-05-05 01:22 | 32.63685 | -82.05550 | 35056 ft | 440 kts | 348° |
| 2026-05-05 01:22 | 32.69795 | -82.06165 | 35052 ft | 441 kts | 349° |
| 2026-05-05 01:23 | 32.75875 | -82.06764 | 35050 ft | 441 kts | 349° |
| 2026-05-05 01:23 | 32.81993 | -82.07365 | 35045 ft | 441 kts | 349° |
| 2026-05-05 01:24 | 32.88113 | -82.07968 | 35043 ft | 441 kts | 349° |
| 2026-05-05 01:24 | 32.94248 | -82.08574 | 35052 ft | 442 kts | 349° |
| 2026-05-05 01:25 | 33.00375 | -82.09180 | 35045 ft | 442 kts | 349° |
| 2026-05-05 01:25 | 33.06518 | -82.09789 | 35042 ft | 443 kts | 349° |
| 2026-05-05 01:26 | 33.12672 | -82.10400 | 35037 ft | 443 kts | 349° |
| 2026-05-05 01:26 | 33.18824 | -82.11011 | 35044 ft | 443 kts | 349° |
| 2026-05-05 01:27 | 33.24938 | -82.11619 | 35052 ft | 443 kts | 349° |
| 2026-05-05 01:27 | 33.31112 | -82.12235 | 35325 ft | 446 kts | 349° |
| 2026-05-05 01:28 | 33.34198 | -82.12542 | 35675 ft | 443 kts | 349° |
| 2026-05-05 01:28 | 33.37260 | -82.12845 | 36043 ft | 440 kts | 349° |
| 2026-05-05 01:28 | 33.43403 | -82.13461 | 36075 ft | 443 kts | 349° |
| 2026-05-05 01:29 | 33.49533 | -82.14074 | 36068 ft | 439 kts | 349° |
| 2026-05-05 01:29 | 33.55600 | -82.14681 | 36068 ft | 436 kts | 349° |
| 2026-05-05 01:30 | 33.61609 | -82.15285 | 36062 ft | 435 kts | 349° |
| 2026-05-05 01:30 | 33.67641 | -82.15892 | 36058 ft | 435 kts | 349° |
| 2026-05-05 01:31 | 33.73735 | -82.15825 | 36060 ft | 445 kts | 2° |
| 2026-05-05 01:31 | 33.79876 | -82.14712 | 36051 ft | 447 kts | 3° |
| 2026-05-05 01:32 | 33.86038 | -82.13557 | 36047 ft | 448 kts | 3° |
| 2026-05-05 01:32 | 33.92222 | -82.12441 | 36051 ft | 450 kts | 2° |
| 2026-05-05 01:33 | 33.98424 | -82.11348 | 36069 ft | 452 kts | 2° |
| 2026-05-05 01:33 | 34.04642 | -82.10257 | 36065 ft | 453 kts | 2° |
| 2026-05-05 01:34 | 34.10889 | -82.09159 | 36061 ft | 454 kts | 2° |
| 2026-05-05 01:34 | 34.17140 | -82.08057 | 36062 ft | 454 kts | 2° |
| 2026-05-05 01:35 | 34.23347 | -82.06962 | 36087 ft | 453 kts | 3° |
| 2026-05-05 01:35 | 34.29589 | -82.05858 | 36064 ft | 453 kts | 3° |
| 2026-05-05 01:36 | 34.35825 | -82.04754 | 36055 ft | 451 kts | 3° |
| 2026-05-05 01:36 | 34.42029 | -82.03653 | 36055 ft | 450 kts | 3° |
| 2026-05-05 01:37 | 34.48224 | -82.02553 | 36082 ft | 449 kts | 3° |
| 2026-05-05 01:37 | 34.54398 | -82.01455 | 36071 ft | 448 kts | 3° |
| 2026-05-05 01:38 | 34.60525 | -82.00364 | 36061 ft | 447 kts | 3° |
| 2026-05-05 01:38 | 34.66673 | -81.99268 | 36054 ft | 446 kts | 3° |
| 2026-05-05 01:39 | 34.72803 | -81.98173 | 36053 ft | 445 kts | 3° |
| 2026-05-05 01:39 | 34.78929 | -81.97077 | 36051 ft | 445 kts | 2° |
| 2026-05-05 01:40 | 34.85058 | -81.95979 | 36051 ft | 445 kts | 3° |
| 2026-05-05 01:40 | 34.91189 | -81.94879 | 36047 ft | 445 kts | 2° |
| 2026-05-05 01:41 | 34.97313 | -81.93778 | 36047 ft | 445 kts | 3° |
| 2026-05-05 01:41 | 35.03443 | -81.92687 | 36047 ft | 445 kts | 1° |
| 2026-05-05 01:42 | 35.09583 | -81.92224 | 36044 ft | 441 kts | 356° |
| 2026-05-05 01:42 | 35.15678 | -81.92042 | 36031 ft | 441 kts | 355° |
| 2026-05-05 01:43 | 35.21817 | -81.91837 | 36033 ft | 442 kts | 356° |
| 2026-05-05 01:43 | 35.27969 | -81.91582 | 36053 ft | 443 kts | 356° |
| 2026-05-05 01:44 | 35.34132 | -81.91324 | 36059 ft | 443 kts | 355° |
| 2026-05-05 01:44 | 35.40290 | -81.91044 | 36055 ft | 443 kts | 356° |
| 2026-05-05 01:45 | 35.46443 | -81.90758 | 36049 ft | 442 kts | 356° |
| 2026-05-05 01:45 | 35.51550 | -81.90522 | 36066 ft | 442 kts | 356° |
| 2026-05-05 01:46 | 35.57698 | -81.90238 | 36044 ft | 442 kts | 356° |
| 2026-05-05 01:46 | 35.63839 | -81.89941 | 36025 ft | 441 kts | 356° |
| 2026-05-05 01:47 | 35.69969 | -81.89648 | 36028 ft | 440 kts | 356° |
| 2026-05-05 01:47 | 35.76088 | -81.89368 | 36029 ft | 440 kts | 356° |
| 2026-05-05 01:48 | 35.82204 | -81.89088 | 36034 ft | 439 kts | 356° |
| 2026-05-05 01:48 | 35.88313 | -81.88806 | 35996 ft | 439 kts | 356° |
| 2026-05-05 01:49 | 35.94426 | -81.88523 | 35994 ft | 439 kts | 356° |
| 2026-05-05 01:49 | 36.00502 | -81.88243 | 36009 ft | 440 kts | 356° |
| 2026-05-05 01:50 | 36.06621 | -81.87958 | 36003 ft | 440 kts | 356° |
| 2026-05-05 01:50 | 36.12744 | -81.87673 | 35994 ft | 440 kts | 356° |
| 2026-05-05 01:51 | 36.18874 | -81.87387 | 35991 ft | 440 kts | 356° |
| 2026-05-05 01:51 | 36.25004 | -81.87101 | 36000 ft | 441 kts | 356° |
| 2026-05-05 01:52 | 36.31142 | -81.86814 | 35987 ft | 440 kts | 356° |
| 2026-05-05 01:52 | 36.37260 | -81.86527 | 35976 ft | 440 kts | 356° |
| 2026-05-05 01:53 | 36.43385 | -81.86239 | 35972 ft | 439 kts | 356° |
| 2026-05-05 01:53 | 36.49458 | -81.85954 | 35967 ft | 439 kts | 356° |
| 2026-05-05 01:54 | 36.55558 | -81.85667 | 35978 ft | 439 kts | 356° |
| 2026-05-05 01:54 | 36.61672 | -81.85380 | 36001 ft | 439 kts | 356° |
| 2026-05-05 01:55 | 36.67781 | -81.85092 | 36006 ft | 440 kts | 356° |
| 2026-05-05 01:55 | 36.73905 | -81.84802 | 36012 ft | 441 kts | 356° |
| 2026-05-05 01:56 | 36.80042 | -81.84511 | 36002 ft | 442 kts | 356° |
| 2026-05-05 01:56 | 36.86194 | -81.84220 | 36007 ft | 443 kts | 356° |
| 2026-05-05 01:57 | 36.92318 | -81.83929 | 36029 ft | 444 kts | 356° |
| 2026-05-05 01:57 | 36.98500 | -81.83635 | 36051 ft | 445 kts | 356° |
| 2026-05-05 01:58 | 37.04695 | -81.83339 | 36043 ft | 445 kts | 356° |
| 2026-05-05 01:58 | 37.10886 | -81.83043 | 36028 ft | 445 kts | 356° |
| 2026-05-05 01:59 | 37.17070 | -81.82747 | 36026 ft | 444 kts | 356° |
| 2026-05-05 01:59 | 37.23247 | -81.82450 | 36019 ft | 444 kts | 356° |
| 2026-05-05 02:00 | 37.29407 | -81.82152 | 35936 ft | 442 kts | 356° |
| 2026-05-05 02:00 | 37.35546 | -81.81862 | 35928 ft | 440 kts | 356° |
| 2026-05-05 02:01 | 37.41659 | -81.81566 | 35926 ft | 438 kts | 356° |
| 2026-05-05 02:01 | 37.47746 | -81.81272 | 35939 ft | 438 kts | 356° |
| 2026-05-05 02:02 | 37.53828 | -81.80979 | 35924 ft | 436 kts | 356° |
| 2026-05-05 02:02 | 37.59888 | -81.80685 | 35932 ft | 436 kts | 356° |
| 2026-05-05 02:03 | 37.65953 | -81.80391 | 35941 ft | 436 kts | 356° |
| 2026-05-05 02:03 | 37.71991 | -81.80099 | 35933 ft | 437 kts | 356° |
| 2026-05-05 02:04 | 37.78067 | -81.79801 | 35923 ft | 437 kts | 356° |
| 2026-05-05 02:04 | 37.84148 | -81.79506 | 35920 ft | 436 kts | 356° |
| 2026-05-05 02:05 | 37.90223 | -81.79208 | 35917 ft | 437 kts | 356° |
| 2026-05-05 02:05 | 37.96306 | -81.78909 | 35917 ft | 438 kts | 357° |
| 2026-05-05 02:06 | 38.02400 | -81.78609 | 35905 ft | 439 kts | 357° |
| 2026-05-05 02:06 | 38.08505 | -81.78309 | 35897 ft | 439 kts | 357° |
| 2026-05-05 02:07 | 38.14604 | -81.78009 | 35904 ft | 439 kts | 357° |
| 2026-05-05 02:07 | 38.20713 | -81.77707 | 35892 ft | 439 kts | 357° |
| 2026-05-05 02:08 | 38.26780 | -81.77407 | 35894 ft | 439 kts | 357° |
| 2026-05-05 02:08 | 38.32896 | -81.77104 | 35895 ft | 439 kts | 357° |
| 2026-05-05 02:09 | 38.38947 | -81.77463 | 35914 ft | 433 kts | 348° |
| 2026-05-05 02:09 | 38.44906 | -81.78511 | 35899 ft | 432 kts | 347° |
| 2026-05-05 02:10 | 38.50855 | -81.79571 | 35896 ft | 431 kts | 348° |
| 2026-05-05 02:10 | 38.56810 | -81.80584 | 35874 ft | 431 kts | 348° |
| 2026-05-05 02:11 | 38.62718 | -81.81565 | 35883 ft | 430 kts | 348° |
| 2026-05-05 02:11 | 38.68652 | -81.82545 | 35867 ft | 430 kts | 348° |
| 2026-05-05 02:12 | 38.77536 | -81.84016 | 35866 ft | 429 kts | 348° |
| 2026-05-05 02:12 | 38.80478 | -81.84503 | 35745 ft | 422 kts | 348° |
| 2026-05-05 02:13 | 38.83383 | -81.84984 | 35260 ft | 420 kts | 348° |
| 2026-05-05 02:13 | 38.86292 | -81.85469 | 34612 ft | 422 kts | 348° |
| 2026-05-05 02:13 | 38.89216 | -81.85958 | 33951 ft | 425 kts | 349° |
| 2026-05-05 02:13 | 38.92157 | -81.86450 | 33203 ft | 428 kts | 348° |
| 2026-05-05 02:14 | 38.95120 | -81.86945 | 32397 ft | 431 kts | 348° |
| 2026-05-05 02:14 | 38.98114 | -81.87445 | 31562 ft | 435 kts | 348° |
| 2026-05-05 02:14 | 39.01127 | -81.87950 | 30717 ft | 440 kts | 348° |
| 2026-05-05 02:14 | 39.04177 | -81.88458 | 29867 ft | 444 kts | 348° |
| 2026-05-05 02:15 | 39.07252 | -81.88971 | 28902 ft | 447 kts | 348° |
| 2026-05-05 02:15 | 39.10307 | -81.89483 | 28001 ft | 448 kts | 348° |
| 2026-05-05 02:15 | 39.13405 | -81.90002 | 27057 ft | 450 kts | 348° |
| 2026-05-05 02:15 | 39.16523 | -81.90526 | 26069 ft | 453 kts | 348° |
| 2026-05-05 02:16 | 39.19655 | -81.91052 | 25134 ft | 455 kts | 348° |
| 2026-05-05 02:16 | 39.22784 | -81.91577 | 24479 ft | 450 kts | 348° |
| 2026-05-05 02:16 | 39.25866 | -81.92092 | 23910 ft | 443 kts | 348° |
| 2026-05-05 02:16 | 39.28916 | -81.92602 | 23260 ft | 439 kts | 348° |
| 2026-05-05 02:17 | 39.31944 | -81.93110 | 22507 ft | 436 kts | 348° |
| 2026-05-05 02:17 | 39.34920 | -81.93612 | 21777 ft | 432 kts | 348° |
| 2026-05-05 02:17 | 39.37885 | -81.94113 | 21115 ft | 428 kts | 348° |
| 2026-05-05 02:17 | 39.40826 | -81.94611 | 20465 ft | 423 kts | 348° |
| 2026-05-05 02:18 | 39.43733 | -81.95103 | 19809 ft | 420 kts | 348° |
| 2026-05-05 02:18 | 39.46618 | -81.95592 | 19157 ft | 416 kts | 348° |
| 2026-05-05 02:18 | 39.49446 | -81.96072 | 18536 ft | 413 kts | 348° |
| 2026-05-05 02:18 | 39.52283 | -81.96553 | 17906 ft | 409 kts | 348° |
| 2026-05-05 02:19 | 39.55096 | -81.97030 | 17257 ft | 407 kts | 348° |
| 2026-05-05 02:19 | 39.57863 | -81.97498 | 17057 ft | 393 kts | 348° |
| 2026-05-05 02:19 | 39.60519 | -81.97945 | 17024 ft | 376 kts | 348° |
| 2026-05-05 02:19 | 39.63059 | -81.98373 | 17007 ft | 360 kts | 348° |
| 2026-05-05 02:20 | 39.65490 | -81.98786 | 17010 ft | 344 kts | 347° |
| 2026-05-05 02:20 | 39.67814 | -81.99184 | 17011 ft | 330 kts | 347° |
| 2026-05-05 02:20 | 39.70042 | -81.99566 | 17013 ft | 317 kts | 347° |
| 2026-05-05 02:20 | 39.72212 | -81.99938 | 17023 ft | 312 kts | 347° |
| 2026-05-05 02:21 | 39.74375 | -82.00311 | 17034 ft | 315 kts | 347° |
| 2026-05-05 02:21 | 39.76561 | -82.00682 | 17049 ft | 321 kts | 348° |
| 2026-05-05 02:21 | 39.78874 | -82.00711 | 17042 ft | 343 kts | 1° |
| 2026-05-05 02:21 | 39.81218 | -82.00244 | 17018 ft | 337 kts | 5° |
| 2026-05-05 02:22 | 39.83464 | -81.99699 | 17015 ft | 330 kts | 5° |
| 2026-05-05 02:22 | 39.85711 | -81.99135 | 17021 ft | 327 kts | 5° |
| 2026-05-05 02:22 | 39.87950 | -81.98577 | 17026 ft | 329 kts | 5° |
| 2026-05-05 02:22 | 39.90204 | -81.98025 | 17037 ft | 330 kts | 5° |
| 2026-05-05 02:23 | 39.92473 | -81.97475 | 17038 ft | 332 kts | 5° |
| 2026-05-05 02:23 | 39.94747 | -81.96930 | 17033 ft | 333 kts | 5° |
| 2026-05-05 02:23 | 39.97030 | -81.96385 | 17028 ft | 333 kts | 5° |
| 2026-05-05 02:23 | 39.99313 | -81.95842 | 17035 ft | 333 kts | 5° |
| 2026-05-05 02:24 | 40.01560 | -81.95308 | 17027 ft | 332 kts | 5° |
| 2026-05-05 02:24 | 40.03831 | -81.94769 | 17027 ft | 331 kts | 5° |
| 2026-05-05 02:24 | 40.06102 | -81.94231 | 17022 ft | 331 kts | 5° |
| 2026-05-05 02:24 | 40.08363 | -81.93695 | 17016 ft | 330 kts | 5° |
| 2026-05-05 02:25 | 40.10619 | -81.93159 | 17012 ft | 329 kts | 5° |
| 2026-05-05 02:25 | 40.12877 | -81.92624 | 17002 ft | 329 kts | 5° |
| 2026-05-05 02:25 | 40.15131 | -81.92089 | 17009 ft | 328 kts | 5° |
| 2026-05-05 02:25 | 40.17382 | -81.91555 | 17006 ft | 328 kts | 5° |
| 2026-05-05 02:26 | 40.19630 | -81.91021 | 17015 ft | 328 kts | 5° |
| 2026-05-05 02:26 | 40.21879 | -81.90487 | 17007 ft | 329 kts | 5° |
| 2026-05-05 02:26 | 40.24133 | -81.89950 | 17001 ft | 329 kts | 5° |
| 2026-05-05 02:26 | 40.26387 | -81.89414 | 16999 ft | 329 kts | 5° |
| 2026-05-05 02:27 | 40.28642 | -81.88877 | 16994 ft | 330 kts | 5° |
| 2026-05-05 02:27 | 40.30900 | -81.88339 | 16995 ft | 330 kts | 5° |
| 2026-05-05 02:27 | 40.33135 | -81.87805 | 16991 ft | 330 kts | 5° |
| 2026-05-05 02:27 | 40.35399 | -81.87265 | 16997 ft | 331 kts | 5° |
| 2026-05-05 02:28 | 40.37694 | -81.86716 | 16991 ft | 331 kts | 5° |
| 2026-05-05 02:28 | 40.39964 | -81.86174 | 16984 ft | 332 kts | 5° |
| 2026-05-05 02:28 | 40.42205 | -81.85638 | 16983 ft | 332 kts | 5° |
| 2026-05-05 02:28 | 40.44480 | -81.85093 | 16992 ft | 332 kts | 5° |
| 2026-05-05 02:29 | 40.46754 | -81.84548 | 16980 ft | 332 kts | 5° |
| 2026-05-05 02:29 | 40.49039 | -81.84002 | 16998 ft | 341 kts | 5° |
| 2026-05-05 02:29 | 40.51425 | -81.83436 | 16995 ft | 354 kts | 5° |
| 2026-05-05 02:29 | 40.53865 | -81.82852 | 16989 ft | 357 kts | 6° |
| 2026-05-05 02:30 | 40.56302 | -81.82264 | 16976 ft | 354 kts | 6° |
| 2026-05-05 02:30 | 40.58721 | -81.81678 | 16977 ft | 352 kts | 6° |
| 2026-05-05 02:30 | 40.61123 | -81.81097 | 16976 ft | 350 kts | 6° |
| 2026-05-05 02:30 | 40.63514 | -81.80520 | 16993 ft | 350 kts | 6° |
| 2026-05-05 02:31 | 40.65929 | -81.79940 | 16495 ft | 357 kts | 6° |
| 2026-05-05 02:31 | 40.68361 | -81.79354 | 16093 ft | 355 kts | 6° |
| 2026-05-05 02:31 | 40.70786 | -81.78768 | 15701 ft | 353 kts | 5° |
| 2026-05-05 02:31 | 40.73199 | -81.78184 | 15308 ft | 351 kts | 5° |
| 2026-05-05 02:32 | 40.75596 | -81.77604 | 14931 ft | 349 kts | 5° |
| 2026-05-05 02:32 | 40.77181 | -81.77220 | 14677 ft | 348 kts | 5° |
| 2026-05-05 02:32 | 40.80366 | -81.76450 | 14182 ft | 346 kts | 5° |
| 2026-05-05 02:32 | 40.82699 | -81.75885 | 13809 ft | 345 kts | 5° |
| 2026-05-05 02:33 | 40.85065 | -81.75312 | 13412 ft | 345 kts | 5° |
| 2026-05-05 02:33 | 40.87415 | -81.74742 | 13007 ft | 343 kts | 5° |
| 2026-05-05 02:33 | 40.89006 | -81.74413 | 12719 ft | 340 kts | 360° |
| 2026-05-05 02:33 | 40.91347 | -81.74248 | 12322 ft | 335 kts | 355° |
| 2026-05-05 02:34 | 40.93669 | -81.74214 | 11943 ft | 333 kts | 354° |
| 2026-05-05 02:34 | 40.95953 | -81.74185 | 11579 ft | 331 kts | 354° |
| 2026-05-05 02:34 | 40.98250 | -81.74131 | 11213 ft | 330 kts | 354° |
| 2026-05-05 02:34 | 41.00535 | -81.74052 | 10855 ft | 328 kts | 355° |
| 2026-05-05 02:35 | 41.02812 | -81.73961 | 10562 ft | 325 kts | 354° |
| 2026-05-05 02:35 | 41.05043 | -81.73865 | 10419 ft | 316 kts | 354° |
| 2026-05-05 02:35 | 41.07222 | -81.73773 | 10265 ft | 310 kts | 354° |
| 2026-05-05 02:35 | 41.09348 | -81.73686 | 10118 ft | 302 kts | 353° |
| 2026-05-05 02:36 | 41.11431 | -81.73603 | 9906 ft | 298 kts | 353° |
| 2026-05-05 02:36 | 41.13505 | -81.73524 | 9623 ft | 298 kts | 353° |
| 2026-05-05 02:36 | 41.15576 | -81.73443 | 9295 ft | 297 kts | 353° |
| 2026-05-05 02:36 | 41.17643 | -81.73361 | 8991 ft | 296 kts | 353° |
| 2026-05-05 02:37 | 41.19676 | -81.73280 | 8691 ft | 296 kts | 353° |
| 2026-05-05 02:37 | 41.21727 | -81.73196 | 8394 ft | 294 kts | 353° |
| 2026-05-05 02:37 | 41.23769 | -81.73112 | 8114 ft | 292 kts | 353° |
| 2026-05-05 02:37 | 41.25799 | -81.73029 | 7843 ft | 291 kts | 353° |
| 2026-05-05 02:38 | 41.27800 | -81.72945 | 7723 ft | 281 kts | 353° |
| 2026-05-05 02:38 | 41.29705 | -81.72860 | 7642 ft | 266 kts | 352° |
| 2026-05-05 02:38 | 41.31501 | -81.72782 | 7536 ft | 250 kts | 352° |
| 2026-05-05 02:38 | 41.33196 | -81.72710 | 7405 ft | 237 kts | 351° |
| 2026-05-05 02:39 | 41.34802 | -81.72642 | 7293 ft | 224 kts | 351° |
| 2026-05-05 02:39 | 41.36343 | -81.72579 | 7078 ft | 218 kts | 350° |
| 2026-05-05 02:39 | 41.37854 | -81.72553 | 6667 ft | 222 kts | 346° |
| 2026-05-05 02:39 | 41.39420 | -81.72659 | 6238 ft | 226 kts | 345° |
| 2026-05-05 02:40 | 41.41014 | -81.72770 | 5738 ft | 235 kts | 348° |
| 2026-05-05 02:40 | 41.42648 | -81.72318 | 5319 ft | 254 kts | 21° |
| 2026-05-05 02:40 | 41.44003 | -81.70774 | 4998 ft | 259 kts | 49° |
| 2026-05-05 02:40 | 41.45097 | -81.68878 | 4685 ft | 258 kts | 51° |
| 2026-05-05 02:41 | 41.46176 | -81.66960 | 4347 ft | 258 kts | 52° |
| 2026-05-05 02:41 | 41.47216 | -81.65030 | 4029 ft | 255 kts | 61° |
| 2026-05-05 02:41 | 41.47778 | -81.62805 | 3642 ft | 255 kts | 80° |
| 2026-05-05 02:41 | 41.48127 | -81.60484 | 3306 ft | 255 kts | 81° |
| 2026-05-05 02:42 | 41.48462 | -81.58182 | 3032 ft | 250 kts | 81° |
| 2026-05-05 02:42 | 41.49110 | -81.56045 | 3032 ft | 250 kts | 50° |
| 2026-05-05 02:42 | 41.50442 | -81.54641 | 3036 ft | 241 kts | 14° |
| 2026-05-05 02:42 | 41.52026 | -81.54372 | 3034 ft | 222 kts | 339° |
| 2026-05-05 02:43 | 41.53319 | -81.55201 | 3017 ft | 197 kts | 307° |
| 2026-05-05 02:43 | 41.54102 | -81.56589 | 2973 ft | 180 kts | 281° |
| 2026-05-05 02:43 | 41.54341 | -81.58185 | 2982 ft | 175 kts | 272° |
| 2026-05-05 02:43 | 41.54493 | -81.59792 | 2995 ft | 174 kts | 268° |
| 2026-05-05 02:44 | 41.54289 | -81.61354 | 3006 ft | 171 kts | 250° |
| 2026-05-05 02:44 | 41.53935 | -81.62887 | 2993 ft | 174 kts | 251° |
| 2026-05-05 02:44 | 41.53588 | -81.64432 | 3024 ft | 173 kts | 251° |
| 2026-05-05 02:44 | 41.53196 | -81.65969 | 2986 ft | 175 kts | 248° |
| 2026-05-05 02:45 | 41.52622 | -81.67347 | 3000 ft | 175 kts | 234° |
| 2026-05-05 02:45 | 41.51815 | -81.68568 | 2985 ft | 175 kts | 230° |
| 2026-05-05 02:45 | 41.50936 | -81.69748 | 2927 ft | 183 kts | 229° |
| 2026-05-05 02:45 | 41.50059 | -81.70994 | 2890 ft | 186 kts | 232° |
| 2026-05-05 02:46 | 41.49251 | -81.72285 | 2798 ft | 174 kts | 234° |
| 2026-05-05 02:46 | 41.48568 | -81.73514 | 2705 ft | 155 kts | 236° |
| 2026-05-05 02:46 | 41.47979 | -81.74609 | 2611 ft | 134 kts | 237° |
| 2026-05-05 02:46 | 41.47481 | -81.75526 | 2535 ft | 110 kts | 234° |
| 2026-05-05 02:47 | 41.47017 | -81.76259 | 2381 ft | 106 kts | 231° |
| 2026-05-05 02:47 | 41.46516 | -81.77002 | 2235 ft | 109 kts | 231° |
| 2026-05-05 02:47 | 41.45999 | -81.77753 | 2130 ft | 110 kts | 231° |
| 2026-05-05 02:47 | 41.45486 | -81.78558 | 1956 ft | 118 kts | 233° |
| 2026-05-05 02:48 | 41.44953 | -81.79417 | 1787 ft | 122 kts | 232° |
| 2026-05-05 02:48 | 41.44417 | -81.80286 | 1626 ft | 123 kts | 233° |
| 2026-05-05 02:48 | 41.43888 | -81.81194 | 1506 ft | 124 kts | 230° |
| 2026-05-05 02:48 | 41.43329 | -81.82076 | 1320 ft | 126 kts | 229° |
| 2026-05-05 02:49 | 41.42780 | -81.82977 | 1193 ft | 127 kts | 228° |
| 2026-05-05 02:49 | 41.42214 | -81.83850 | 1060 ft | 126 kts | 227° |
| 2026-05-05 02:49 | 41.41640 | -81.84750 | 843 ft | 130 kts | 227° |
| 2026-05-05 02:49 | 41.41083 | -81.85613 | 791 ft | 101 kts | 230° |
| 2026-05-05 02:50 | 41.40846 | -81.85889 | 785 ft | 6 kts | 162° |
| 2026-05-05 02:50 | 41.40825 | -81.85857 | 785 ft | 0 kts | 123° |
| 2026-05-05 02:51 | 41.40805 | -81.85823 | 785 ft | 12 kts | 131° |
| 2026-05-05 02:51 | 41.40734 | -81.85761 | 782 ft | 13 kts | 175° |
| 2026-05-05 02:52 | 41.40672 | -81.85838 | 782 ft | 13 kts | 229° |
| 2026-05-05 02:52 | 41.40610 | -81.85918 | 783 ft | 12 kts | 224° |
| 2026-05-05 02:52 | 41.40554 | -81.86001 | 780 ft | 12 kts | 229° |
| 2026-05-05 02:52 | 41.40495 | -81.86090 | 778 ft | 13 kts | 228° |
| 2026-05-05 02:53 | 41.40454 | -81.86112 | 778 ft | 0 kts | 169° |
| 2026-05-05 02:53 | 41.40453 | -81.86112 | 778 ft | 0 kts | 168° |
| 2026-05-05 02:54 | 41.40447 | -81.86109 | 777 ft | 6 kts | 159° |
| 2026-05-05 02:54 | 41.40383 | -81.86047 | 777 ft | 14 kts | 142° |
| 2026-05-05 02:54 | 41.40312 | -81.85960 | 779 ft | 14 kts | 119° |
| 2026-05-05 02:54 | 41.40347 | -81.85854 | 781 ft | 13 kts | 50° |
| 2026-05-05 02:55 | 41.40406 | -81.85763 | 783 ft | 14 kts | 49° |
| 2026-05-05 02:55 | 41.40477 | -81.85654 | 785 ft | 16 kts | 49° |
| 2026-05-05 02:55 | 41.40552 | -81.85537 | 784 ft | 17 kts | 50° |
| 2026-05-05 02:55 | 41.40615 | -81.85436 | 785 ft | 10 kts | 49° |
| 2026-05-05 02:56 | 41.40651 | -81.85345 | 784 ft | 13 kts | 80° |
| 2026-05-05 02:56 | 41.40648 | -81.85190 | 784 ft | 20 kts | 92° |
| 2026-05-05 02:56 | 41.40641 | -81.84988 | 789 ft | 22 kts | 93° |
| 2026-05-05 02:56 | 41.40634 | -81.84786 | 791 ft | 21 kts | 92° |
| 2026-05-05 02:57 | 41.40622 | -81.84597 | 794 ft | 20 kts | 94° |
| 2026-05-05 02:57 | 41.40614 | -81.84412 | 796 ft | 20 kts | 93° |
| 2026-05-05 02:57 | 41.40610 | -81.84232 | 795 ft | 19 kts | 91° |
| 2026-05-05 02:57 | 41.40627 | -81.84088 | 796 ft | 5 kts | 59° |
| 2026-05-05 02:58 | 41.40628 | -81.84020 | 797 ft | 9 kts | 90° |
| 2026-05-05 02:58 | 41.40608 | -81.83969 | 798 ft | 0 kts | 133° |